createdAt,value
2017-03-12T00:07:27.354Z,0
2017-03-12T00:17:27.369Z,0
2017-03-12T00:27:27.297Z,0
2017-03-12T00:37:27.379Z,0
2017-03-12T00:47:27.302Z,0
2017-03-12T00:57:27.355Z,0
2017-03-12T01:07:27.404Z,0
2017-03-12T01:17:27.486Z,0
2017-03-12T01:27:27.320Z,0
2017-03-12T01:37:27.446Z,0
2017-03-12T01:47:27.446Z,0
2017-03-12T01:57:27.504Z,0
2017-03-12T02:07:27.419Z,0
2017-03-12T02:17:27.395Z,0
2017-03-12T02:27:27.479Z,0
2017-03-12T02:37:27.348Z,0
2017-03-12T02:47:27.438Z,0
2017-03-12T02:57:27.394Z,0
2017-03-12T03:07:27.515Z,0
2017-03-12T03:17:27.415Z,0
2017-03-12T03:27:27.494Z,0
2017-03-12T03:37:27.562Z,0
2017-03-12T03:47:27.621Z,0
2017-03-12T03:57:27.433Z,0
2017-03-12T04:07:29.641Z,0
2017-03-12T04:17:27.466Z,0
2017-03-12T04:27:27.509Z,0
2017-03-12T04:37:27.469Z,0
2017-03-12T04:47:27.508Z,0
2017-03-12T04:57:27.469Z,0
2017-03-12T05:07:27.540Z,0
2017-03-12T05:17:27.643Z,0
2017-03-12T05:27:27.528Z,0
2017-03-12T05:37:27.516Z,0
2017-03-12T05:47:27.700Z,5
2017-03-12T05:57:27.623Z,10
2017-03-12T06:07:27.715Z,25
2017-03-12T06:17:27.613Z,40
2017-03-12T06:27:27.523Z,55
2017-03-12T06:37:27.597Z,60
2017-03-12T06:47:27.603Z,75
2017-03-12T06:57:27.890Z,90
2017-03-12T07:07:27.637Z,100
2017-03-12T07:17:27.770Z,115
2017-03-12T07:27:27.623Z,120
2017-03-12T07:37:27.643Z,130
2017-03-12T07:47:27.692Z,130
2017-03-12T07:57:28.118Z,135
2017-03-12T08:07:27.627Z,140
2017-03-12T08:17:27.600Z,145
2017-03-12T08:27:27.680Z,145
2017-03-12T08:37:27.598Z,155
2017-03-12T08:47:27.699Z,165
2017-03-12T08:57:27.675Z,170
2017-03-12T09:07:27.720Z,175
2017-03-12T09:17:27.705Z,175
2017-03-12T09:27:27.751Z,185
2017-03-12T09:37:33.588Z,180
2017-03-12T09:47:27.790Z,170
2017-03-12T09:57:27.740Z,160
2017-03-12T10:07:27.838Z,155
2017-03-12T10:17:27.827Z,155
2017-03-12T10:27:27.899Z,155
2017-03-12T10:37:27.816Z,150
2017-03-12T10:47:27.797Z,150
2017-03-12T10:57:27.816Z,145
2017-03-12T11:07:27.800Z,145
2017-03-12T11:17:27.834Z,145
2017-03-12T11:27:27.805Z,145
2017-03-12T11:37:27.868Z,145
2017-03-12T11:47:27.805Z,145
2017-03-12T11:57:27.854Z,145
2017-03-12T12:07:27.811Z,145
2017-03-12T12:17:27.893Z,150
2017-03-12T12:27:27.875Z,150
2017-03-12T12:37:27.984Z,155
2017-03-12T12:57:27.973Z,145
2017-03-12T13:07:27.953Z,145
2017-03-12T13:17:29.524Z,145
2017-03-12T13:27:28.096Z,135
2017-03-12T13:37:28.156Z,130
2017-03-12T13:47:27.999Z,130
2017-03-12T13:57:28.200Z,125
2017-03-12T14:07:27.969Z,130
2017-03-12T14:17:28.116Z,130
2017-03-12T14:27:28.014Z,130
2017-03-12T14:37:28.113Z,130
2017-03-12T14:47:28.034Z,120
2017-03-12T14:57:28.074Z,110
2017-03-12T15:07:28.100Z,110
2017-03-12T15:17:28.584Z,105
2017-03-12T15:27:36.242Z,100
2017-03-12T15:37:28.052Z,95
2017-03-12T15:47:28.145Z,90
2017-03-12T15:57:28.218Z,85
2017-03-12T16:07:28.271Z,85
2017-03-12T16:17:28.183Z,80
2017-03-12T16:27:28.241Z,70
2017-03-12T16:37:28.138Z,60
2017-03-12T16:47:28.197Z,50
2017-03-12T16:57:28.197Z,35
2017-03-12T17:07:30.138Z,25
2017-03-12T17:17:28.148Z,15
2017-03-12T17:27:28.247Z,5
2017-03-12T17:37:28.712Z,0
2017-03-12T17:47:28.596Z,0
2017-03-12T17:57:28.244Z,0
2017-03-12T18:07:28.173Z,0
2017-03-12T18:17:28.324Z,0
2017-03-12T18:27:28.258Z,0
2017-03-12T18:37:28.328Z,0
2017-03-12T18:47:28.202Z,0
2017-03-12T18:57:28.850Z,0
2017-03-12T19:07:28.282Z,0
2017-03-12T19:17:28.521Z,0
2017-03-12T19:27:28.381Z,0
2017-03-12T19:37:32.573Z,0
2017-03-12T19:47:28.405Z,0
2017-03-12T19:57:28.973Z,0
2017-03-12T20:07:29.392Z,0
2017-03-12T20:17:28.431Z,0
2017-03-12T20:27:28.417Z,0
2017-03-12T20:37:28.376Z,0
2017-03-12T20:47:28.531Z,0
2017-03-12T20:57:28.431Z,0
2017-03-12T21:07:28.422Z,0
2017-03-12T21:17:28.526Z,0
2017-03-12T21:27:28.442Z,0
2017-03-12T21:37:28.498Z,0
2017-03-12T21:47:28.475Z,0
2017-03-12T21:57:39.379Z,0
2017-03-12T22:07:37.339Z,0
2017-03-12T22:17:28.457Z,0
2017-03-12T22:27:28.461Z,0
2017-03-12T22:37:28.550Z,0
2017-03-12T22:47:28.568Z,0
2017-03-12T22:57:28.749Z,0
2017-03-12T23:07:28.617Z,0
2017-03-12T23:17:38.243Z,0
2017-03-12T23:27:28.507Z,0
2017-03-12T23:37:28.436Z,0
2017-03-12T23:47:28.576Z,0
2017-03-12T23:57:28.489Z,0
